Time;durP1;ratioP1;P1;durP2;ratioP2;P2;SDS_P1;SDS_P2;PMS_P1;PMS_P2;Temp;Humidity;BMP_temperature;BMP_pressure;BME280_temperature;BME280_humidity;BME280_pressure;Samples;Min_cycle;Max_cycle;Signal;HPM_P1;HPM_P2
2020/12/18 00:02:26;;;;;;;;;;;;;;;-1.76;100.00;102086.86;1867466;77;20172;-37
2020/12/18 00:04:54;;;;;;;;;;;;;;;-1.76;100.00;102085.57;1867385;77;20433;-37
2020/12/18 00:07:23;;;;;;;;;;;;;;;-1.76;100.00;102085.97;1867275;76;20121;-38
2020/12/18 00:09:50;;;;;;;;;;;;;;;-1.78;100.00;102086.30;1867227;77;20146;-35
2020/12/18 00:12:17;;;;;;;;;;;;;;;-1.81;100.00;102085.73;1867363;77;20194;-38
2020/12/18 00:14:45;;;;;;;;;;;;;;;-1.83;100.00;102087.72;1867249;77;20122;-38
2020/12/18 00:17:13;;;;;;;;;;;;;;;-1.87;100.00;102087.96;1867456;77;20265;-37
2020/12/18 00:19:41;;;;;;;;;;;;;;;-1.87;100.00;102081.53;1867518;77;20229;-37
2020/12/18 00:22:09;;;;;;;;;;;;;;;-1.88;100.00;102083.61;1867561;77;20162;-37
2020/12/18 00:24:37;;;;;;;;;;;;;;;-1.89;100.00;102084.41;1867504;77;20992;-37
2020/12/18 00:27:04;;;;;;;;;;;;;;;-1.88;100.00;102085.30;1872082;75;20190;-38
2020/12/18 00:29:32;;;;;;;;;;;;;;;-1.88;100.00;102083.61;1867427;76;20121;-37
2020/12/18 00:32:05;;;;;;;;;;;;;;;-1.89;100.00;102083.12;1870492;75;20144;-36
2020/12/18 00:34:32;;;;;;;;;;;;;;;-1.91;100.00;102087.31;1867001;77;20222;-36
2020/12/18 00:37:00;;;;;;;;;;;;;;;-1.91;100.00;102089.89;1867143;77;20142;-35
2020/12/18 00:39:27;;;;;;;;;;;;;;;-1.90;100.00;102087.77;1867277;77;20138;-37
2020/12/18 00:41:55;;;;;;;;;;;;;;;-1.89;100.00;102085.70;1867237;77;20209;-38
2020/12/18 00:44:23;;;;;;;;;;;;;;;-1.88;100.00;102085.30;1867523;77;20159;-36
2020/12/18 00:46:51;;;;;;;;;;;;;;;-1.88;100.00;102088.75;1867452;77;20133;-36
2020/12/18 00:49:18;;;;;;;;;;;;;;;-1.87;100.00;102087.96;1867340;77;20162;-37
2020/12/18 00:51:52;;;;;;;;;;;;;;;-1.87;100.00;102081.93;1867257;76;20121;-37
2020/12/18 00:54:19;;;;;;;;;;;;;;;-1.86;100.00;102077.28;1867183;77;20139;-39
2020/12/18 00:56:47;;;;;;;;;;;;;;;-1.85;100.00;102075.20;1867341;75;20301;-37
2020/12/18 00:59:16;;;;;;;;;;;;;;;-1.84;100.00;102073.13;1867107;77;20226;-37
2020/12/18 01:01:45;;;;;;;;;;;;;;;-1.82;100.00;102068.53;1867338;77;20379;-38
2020/12/18 01:04:13;;;;;;;;;;;;;;;-1.81;100.00;102067.73;1867376;77;20233;-35
2020/12/18 01:06:42;;;;;;;;;;;;;;;-1.80;100.00;102068.22;1869545;75;20142;-37
2020/12/18 01:09:10;;;;;;;;;;;;;;;-1.80;100.00;102067.34;1868118;75;20190;-37
2020/12/18 01:11:38;;;;;;;;;;;;;;;-1.80;100.00;102060.52;1867160;77;20122;-37
2020/12/18 01:14:07;;;;;;;;;;;;;;;-1.78;100.00;102064.46;1867473;77;20146;-34
2020/12/18 01:16:36;;;;;;;;;;;;;;;-1.77;100.00;102064.52;1867359;77;20122;-37
2020/12/18 01:19:04;;;;;;;;;;;;;;;-1.78;100.00;102060.60;1867508;77;20265;-36
2020/12/18 01:21:36;;;;;;;;;;;;;;;-1.77;100.00;102062.38;1867128;77;20194;-36
2020/12/18 01:24:03;;;;;;;;;;;;;;;-1.78;100.00;102058.03;1867041;77;20213;-37
2020/12/18 01:26:32;;;;;;;;;;;;;;;-1.80;100.00;102061.80;1866935;77;20173;-36
2020/12/18 01:29:00;;;;;;;;;;;;;;;-1.80;100.00;102065.66;1867222;77;20178;-36
2020/12/18 01:31:28;;;;;;;;;;;;;;;-1.79;100.00;102054.58;1867444;75;20410;-36
2020/12/18 01:33:56;;;;;;;;;;;;;;;-1.79;100.00;102054.58;1867472;77;20209;-37
2020/12/18 01:36:25;;;;;;;;;;;;;;;-1.78;100.00;102046.47;1886329;75;20128;-37
2020/12/18 01:38:56;;;;;;;;;;;;;;;-1.79;100.00;102045.98;1902285;75;20206;-36
2020/12/18 01:41:23;;;;;;;;;;;;;;;-1.79;100.00;102044.69;1902299;75;20164;-37
2020/12/18 01:43:51;;;;;;;;;;;;;;;-1.79;100.00;102043.41;1902356;75;20155;-37
2020/12/18 01:46:19;;;;;;;;;;;;;;;-1.79;100.00;102042.12;1902423;75;20418;-37
2020/12/18 01:48:49;;;;;;;;;;;;;;;-1.80;100.00;102039.95;1896961;75;20192;-37
2020/12/18 01:51:16;;;;;;;;;;;;;;;-1.79;100.00;102042.12;1902204;75;20199;-37
2020/12/18 01:53:45;;;;;;;;;;;;;;;-1.80;100.00;102035.20;1869438;75;20400;-35
2020/12/18 01:56:21;;;;;;;;;;;;;;;-1.80;100.00;102038.66;1866634;77;20245;-37
2020/12/18 01:58:52;;;;;;;;;;;;;;;-1.80;100.00;102044.20;1867138;77;20139;-38
2020/12/18 02:01:21;;;;;;;;;;;;;;;-1.82;100.00;102039.37;1866668;77;20408;-35
2020/12/18 02:03:53;;;;;;;;;;;;;;;-1.85;100.00;102040.11;1864372;77;20166;-36
2020/12/18 02:06:25;;;;;;;;;;;;;;;-1.86;100.00;102038.33;1861909;77;20182;-37
2020/12/18 02:08:54;;;;;;;;;;;;;;;-1.88;100.00;102042.89;1866463;77;20174;-37
2020/12/18 02:11:24;;;;;;;;;;;;;;;-1.89;100.00;102042.00;1866047;77;20166;-36
2020/12/18 02:13:53;;;;;;;;;;;;;;;-1.90;100.00;102043.23;1867372;77;20186;-36
2020/12/18 02:16:23;;;;;;;;;;;;;;;-1.90;100.00;102046.66;1867145;77;20178;-38
2020/12/18 02:18:52;;;;;;;;;;;;;;;-1.90;100.00;102050.94;1866580;77;20117;-36
2020/12/18 02:21:20;;;;;;;;;;;;;;;-1.90;100.00;102044.52;1875967;75;20143;-36
2020/12/18 02:26:49;;;;;;;;;;;;;;;-1.86;100.00;102045.16;1910253;74;20396;-37
2020/12/18 02:29:18;;;;;;;;;;;;;;;-1.90;100.00;102053.08;1870788;77;20191;-39
2020/12/18 02:31:49;;;;;;;;;;;;;;;-1.90;100.00;102059.50;1867373;77;20191;-36
2020/12/18 02:34:25;;;;;;;;;;;;;;;-1.91;100.00;102055.19;1865651;77;20144;-37
2020/12/18 02:36:53;;;;;;;;;;;;;;;-1.91;100.00;102056.48;1868108;77;20397;-37
2020/12/18 02:39:20;;;;;;;;;;;;;;;-1.90;100.00;102058.66;1867904;77;20235;-37
2020/12/18 02:41:50;;;;;;;;;;;;;;;-1.91;100.00;102055.59;1867587;75;20135;-38
2020/12/18 02:44:20;;;;;;;;;;;;;;;-1.91;100.00;102060.73;1867377;77;20251;-36
2020/12/18 02:47:01;;;;;;;;;;;;;;;-1.91;100.00;102062.02;1817904;77;20146;-37
2020/12/18 02:49:29;;;;;;;;;;;;;;;-1.91;100.00;102058.16;1863036;77;20181;-37
2020/12/18 02:51:56;;;;;;;;;;;;;;;-1.91;100.00;102058.16;1860731;77;20178;-36
2020/12/18 02:54:43;;;;;;;;;;;;;;;-1.90;100.00;102063.79;1887564;75;20132;-37
2020/12/18 02:57:21;;;;;;;;;;;;;;;-1.90;100.00;102058.22;1803926;78;20135;-36
2020/12/18 02:59:54;;;;;;;;;;;;;;;-1.89;100.00;102064.25;1866368;77;20194;-36
2020/12/18 03:02:22;;;;;;;;;;;;;;;-1.89;100.00;102057.42;1868227;75;20375;-37
2020/12/18 03:04:52;;;;;;;;;;;;;;;-1.88;100.00;102058.31;1867943;77;20146;-38
2020/12/18 03:07:21;;;;;;;;;;;;;;;-1.87;100.00;102054.55;1894036;75;20196;-37
2020/12/18 03:09:49;;;;;;;;;;;;;;;-1.85;100.00;102061.06;1889636;75;20166;-37
2020/12/18 03:12:18;;;;;;;;;;;;;;;-1.85;100.00;102061.06;1867943;77;20293;-38
2020/12/18 03:14:46;;;;;;;;;;;;;;;-1.84;100.00;102059.88;1867877;77;20225;-37
2020/12/18 03:17:19;;;;;;;;;;;;;;;-1.83;100.00;102062.01;1862990;77;20208;-36
2020/12/18 03:19:48;;;;;;;;;;;;;;;-1.83;100.00;102062.90;1868117;76;20177;-37
2020/12/18 03:22:24;;;;;;;;;;;;;;;-1.82;100.00;102065.07;1868124;76;20166;-37
2020/12/18 03:24:53;;;;;;;;;;;;;;;-1.82;100.00;102062.10;1862947;77;20165;-39
2020/12/18 03:27:23;;;;;;;;;;;;;;;-1.82;100.00;102069.81;1863230;77;20158;-37
2020/12/18 03:29:52;;;;;;;;;;;;;;;-1.80;100.00;102073.36;1873087;75;20124;-38
2020/12/18 03:32:22;;;;;;;;;;;;;;;-1.78;100.00;102067.03;1867988;77;20128;-39
2020/12/18 03:34:51;;;;;;;;;;;;;;;-1.77;100.00;102072.66;1866141;75;20132;-37
2020/12/18 03:37:21;;;;;;;;;;;;;;;-1.75;100.00;102074.89;1867102;76;20137;-37
2020/12/18 03:39:49;;;;;;;;;;;;;;;-1.73;100.00;102074.58;1867520;77;20134;-37
2020/12/18 03:42:24;;;;;;;;;;;;;;;-1.72;100.00;102077.25;1867077;75;20233;-37
2020/12/18 03:44:53;;;;;;;;;;;;;;;-1.70;100.00;102076.91;1867211;77;20229;-37
2020/12/18 03:47:22;;;;;;;;;;;;;;;-1.68;100.00;102084.31;1862646;77;20122;-38
2020/12/18 03:49:52;;;;;;;;;;;;;;;-1.65;100.00;102081.04;1866248;77;20119;-38
2020/12/18 03:52:19;;;;;;;;;;;;;;;-1.64;100.00;102074.67;1867153;75;20233;-37
2020/12/18 03:54:49;;;;;;;;;;;;;;;-1.61;100.00;102080.39;1867275;77;20194;-39
2020/12/18 03:57:33;;;;;;;;;;;;;;;-1.59;100.00;102079.20;1789271;78;20219;-38
2020/12/18 04:00:06;;;;;;;;;;;;;;;-1.61;100.00;102077.81;1834338;76;20317;-36
2020/12/18 04:02:44;;;;;;;;;;;;;;;-1.59;100.00;102084.34;1867589;76;20176;-38
2020/12/18 04:05:12;;;;;;;;;;;;;;;-1.58;100.00;102081.86;1867417;77;20468;-37
2020/12/18 04:07:40;;;;;;;;;;;;;;;-1.57;100.00;102079.73;1867490;75;20481;-37
2020/12/18 04:10:09;;;;;;;;;;;;;;;-1.57;100.00;102075.89;1832345;77;20146;-37
2020/12/18 04:12:39;;;;;;;;;;;;;;;-1.55;100.00;102080.72;1866286;77;20174;-37
2020/12/18 04:15:06;;;;;;;;;;;;;;;-1.54;100.00;102080.32;1867384;77;20174;-38
2020/12/18 04:17:38;;;;;;;;;;;;;;;-1.55;100.00;102084.58;1865491;77;20178;-38
2020/12/18 04:20:08;;;;;;;;;;;;;;;-1.55;100.00;102088.44;1867457;75;20162;-37
2020/12/18 04:22:37;;;;;;;;;;;;;;;-1.57;100.00;102081.02;1901511;75;20132;-35
2020/12/18 04:25:15;;;;;;;;;;;;;;;-1.57;100.00;102085.28;1870445;75;20147;-38
2020/12/18 04:27:44;;;;;;;;;;;;;;;-1.58;100.00;102090.86;1867231;75;20143;-36
2020/12/18 04:30:12;;;;;;;;;;;;;;;-1.58;100.00;102092.14;1869080;75;20158;-37
2020/12/18 04:32:42;;;;;;;;;;;;;;;-1.59;100.00;102094.63;1867369;76;20144;-37
2020/12/18 04:35:10;;;;;;;;;;;;;;;-1.59;100.00;102091.66;1867206;77;20141;-39
2020/12/18 04:37:39;;;;;;;;;;;;;;;-1.58;100.00;102097.28;1866139;76;20160;-38
2020/12/18 04:40:15;;;;;;;;;;;;;;;-1.57;100.00;102090.03;1859135;76;20195;-38
2020/12/18 04:42:59;;;;;;;;;;;;;;;-1.54;100.00;102097.03;1871446;75;20138;-39
2020/12/18 04:45:27;;;;;;;;;;;;;;;-1.52;100.00;102099.30;1857751;76;20202;-39
2020/12/18 04:47:56;;;;;;;;;;;;;;;-1.52;100.00;102093.76;1834650;77;20142;-38
2020/12/18 04:50:25;;;;;;;;;;;;;;;-1.51;100.00;102098.07;1866831;77;20407;-37
2020/12/18 04:53:04;;;;;;;;;;;;;;;-1.51;100.00;102097.22;1870503;75;20192;-39
2020/12/18 04:55:34;;;;;;;;;;;;;;;-1.53;100.00;102098.41;1853876;75;20184;-38
2020/12/18 04:58:22;;;;;;;;;;;;;;;-1.53;100.00;102090.70;1867323;77;20168;-41
2020/12/18 05:00:55;;;;;;;;;;;;;;;-1.52;100.00;102098.02;1867200;77;20156;-37
2020/12/18 05:03:24;;;;;;;;;;;;;;;-1.54;100.00;102092.78;1867856;76;20386;-38
2020/12/18 05:05:52;;;;;;;;;;;;;;;-1.54;100.00;102094.46;1871853;75;20466;-39
2020/12/18 05:08:20;;;;;;;;;;;;;;;-1.55;100.00;102094.86;1867049;77;20417;-37
2020/12/18 05:10:49;;;;;;;;;;;;;;;-1.55;100.00;102092.29;1873900;76;20199;-38
2020/12/18 05:13:24;;;;;;;;;;;;;;;-1.54;100.00;102093.17;1866984;76;20193;-38
2020/12/18 05:15:54;;;;;;;;;;;;;;;-1.54;100.00;102095.75;1880637;75;20184;-38
2020/12/18 05:18:35;;;;;;;;;;;;;;;-1.52;100.00;102101.47;1877541;75;20295;-38
2020/12/18 05:21:05;;;;;;;;;;;;;;;-1.52;100.00;102102.76;1864913;77;20174;-38
2020/12/18 05:23:41;;;;;;;;;;;;;;;-1.51;100.00;102103.22;1865432;77;20139;-37
2020/12/18 05:26:14;;;;;;;;;;;;;;;-1.53;100.00;102107.41;1866640;75;20204;-40
2020/12/18 05:28:45;;;;;;;;;;;;;;;-1.51;100.00;102108.36;1879559;75;20183;-39
2020/12/18 05:31:14;;;;;;;;;;;;;;;-1.48;100.00;102109.83;1867366;75;20418;-36
2020/12/18 05:34:03;;;;;;;;;;;;;;;-1.48;100.00;102108.54;1870338;75;20176;-38
2020/12/18 05:36:33;;;;;;;;;;;;;;;-1.45;100.00;102107.44;1829634;77;20478;-39
2020/12/18 05:39:01;;;;;;;;;;;;;;;-1.44;100.00;102103.14;1835300;77;20272;-39
2020/12/18 05:41:33;;;;;;;;;;;;;;;-1.43;100.00;102109.66;1803996;78;20473;-40
2020/12/18 05:44:06;;;;;;;;;;;;;;;-1.42;100.00;102107.59;1810665;77;20296;-40
2020/12/18 05:46:38;;;;;;;;;;;;;;;-1.41;100.00;102111.93;1787084;78;20157;-39
2020/12/18 05:49:16;;;;;;;;;;;;;;;-1.40;100.00;102116.67;1791752;79;20183;-37
2020/12/18 05:51:46;;;;;;;;;;;;;;;-1.40;100.00;102120.14;1790111;78;20156;-40
2020/12/18 05:54:18;;;;;;;;;;;;;;;-1.38;100.00;102114.65;1806175;78;20291;-39
2020/12/18 05:56:52;;;;;;;;;;;;;;;-1.35;100.00;102111.37;1804143;78;20398;-40
2020/12/18 05:59:20;;;;;;;;;;;;;;;-1.34;100.00;102121.75;1822778;77;20129;-38
2020/12/18 06:01:53;;;;;;;;;;;;;;;-1.31;100.00;102118.44;1795194;79;20191;-41
2020/12/18 06:04:42;;;;;;;;;;;;;;;-1.28;100.00;102131.48;1782865;79;20129;-39
2020/12/18 06:07:15;;;;;;;;;;;;;;;-1.26;100.00;102132.46;1809142;78;20187;-40
2020/12/18 06:10:04;;;;;;;;;;;;;;;-1.25;100.00;102122.66;1807090;78;20206;-39
2020/12/18 06:12:33;;;;;;;;;;;;;;;-1.24;100.00;102128.26;1803396;78;20179;-38
2020/12/18 06:15:02;;;;;;;;;;;;;;;-1.23;100.00;102122.31;1804863;78;20494;-38
2020/12/18 06:17:31;;;;;;;;;;;;;;;-1.22;100.00;102122.80;1813275;78;20371;-37
2020/12/18 06:20:00;;;;;;;;;;;;;;;-1.22;100.00;102133.98;1803981;78;20157;-39
2020/12/18 06:22:30;;;;;;;;;;;;;;;-1.22;100.00;102128.84;1807604;78;20194;-38
2020/12/18 06:26:57;;;;;;;;;;;;;;;-1.11;100.00;102130.68;1895092;74;20204;-41
2020/12/18 06:29:27;;;;;;;;;;;;;;;-1.12;100.00;102131.91;1869330;75;20160;-39
2020/12/18 06:32:23;;;;;;;;;;;;;;;-1.11;100.00;102134.55;1884846;75;20274;-39
2020/12/18 06:35:16;;;;;;;;;;;;;;;-1.10;100.00;102131.17;1870057;75;20223;-39
2020/12/18 06:37:45;;;;;;;;;;;;;;;-1.06;100.00;102136.09;1874977;75;20192;-41
2020/12/18 06:40:30;;;;;;;;;;;;;;;-1.00;100.00;102129.98;1814781;78;20218;-40
2020/12/18 06:43:06;;;;;;;;;;;;;;;-0.98;100.00;102136.96;1819531;78;20160;-41
2020/12/18 06:45:35;;;;;;;;;;;;;;;-0.96;100.00;102129.33;1800840;77;20134;-39
2020/12/18 06:48:27;;;;;;;;;;;;;;;-0.94;100.00;102134.16;1806153;78;20185;-41
2020/12/18 06:51:25;;;;;;;;;;;;;;;-0.91;100.00;102136.88;1808241;78;20198;-42
2020/12/18 06:54:08;;;;;;;;;;;;;;;-0.90;100.00;102136.97;1802925;78;20457;-39
2020/12/18 06:56:38;;;;;;;;;;;;;;;-0.86;100.00;102140.61;1808769;78;20192;-39
2020/12/18 06:59:22;;;;;;;;;;;;;;;-0.84;100.00;102145.41;1798297;78;20158;-39
2020/12/18 07:01:49;;;;;;;;;;;;;;;-0.79;100.00;102146.97;1807766;78;20164;-38
2020/12/18 07:04:21;;;;;;;;;;;;;;;-0.76;100.00;102149.28;1803840;78;20189;-41
2020/12/18 07:06:50;;;;;;;;;;;;;;;-0.78;100.00;102152.16;1810089;78;20457;-41
2020/12/18 07:09:18;;;;;;;;;;;;;;;-0.81;100.00;102149.45;1784670;78;20188;-42
2020/12/18 07:11:47;;;;;;;;;;;;;;;-0.79;100.00;102150.42;1790479;78;20141;-41
2020/12/18 07:14:17;;;;;;;;;;;;;;;-0.78;100.00;102153.45;1795572;78;20137;-41
2020/12/18 07:16:55;;;;;;;;;;;;;;;-0.76;100.00;102154.43;1806149;77;20193;-41
2020/12/18 07:19:23;;;;;;;;;;;;;;;-0.74;100.00;102161.84;1800676;78;20214;-42
2020/12/18 07:22:01;;;;;;;;;;;;;;;-0.73;100.00;102160.16;1821270;78;20469;-39
2020/12/18 07:24:30;;;;;;;;;;;;;;;-0.69;100.00;102156.52;1807859;78;20117;-40
2020/12/18 07:26:58;;;;;;;;;;;;;;;-0.63;100.00;102158.52;1832083;77;20235;-41
2020/12/18 07:29:25;;;;;;;;;;;;;;;-0.59;100.00;102155.32;1840011;77;20291;-39
2020/12/18 07:31:55;;;;;;;;;;;;;;;-0.55;100.00;102159.81;1813968;77;20469;-42
2020/12/18 07:34:23;;;;;;;;;;;;;;;-0.53;100.00;102159.09;1794085;79;20200;-41
2020/12/18 07:36:52;;;;;;;;;;;;;;;-0.52;100.00;102156.09;1810883;78;20186;-40
2020/12/18 07:39:20;;;;;;;;;;;;;;;-0.51;100.00;102160.04;1817123;78;20279;-39
2020/12/18 07:41:47;;;;;;;;;;;;;;;-0.54;100.00;102167.62;1813050;78;20244;-40
2020/12/18 07:44:16;;;;;;;;;;;;;;;-0.55;100.00;102171.41;1817085;78;20207;-40
2020/12/18 07:46:44;;;;;;;;;;;;;;;-0.56;100.00;102170.91;1819183;78;20126;-40
2020/12/18 07:49:12;;;;;;;;;;;;;;;-0.56;100.00;102173.49;1776285;78;20219;-42
2020/12/18 07:51:41;;;;;;;;;;;;;;;-0.58;100.00;102175.98;1809071;78;20202;-40
2020/12/18 07:54:12;;;;;;;;;;;;;;;-0.58;100.00;102181.13;1815751;78;20193;-40
2020/12/18 07:56:43;;;;;;;;;;;;;;;-0.57;100.00;102181.62;1776642;78;20225;-42
2020/12/18 07:59:12;;;;;;;;;;;;;;;-0.58;100.00;102181.53;1813583;78;20197;-42
2020/12/18 08:01:42;;;;;;;;;;;;;;;-0.58;100.00;102186.69;1815494;78;20324;-42
2020/12/18 08:04:14;;;;;;;;;;;;;;;-0.55;100.00;102184.28;1781274;78;20527;-42
2020/12/18 08:06:45;;;;;;;;;;;;;;;-0.53;100.00;102180.99;1783848;78;20186;-42
2020/12/18 08:09:33;;;;;;;;;;;;;;;-0.48;100.00;102179.93;1765334;78;20210;-41
2020/12/18 08:12:31;;;;;;;;;;;;;;;-0.48;100.00;102180.82;1780847;78;20164;-43
2020/12/18 08:15:12;;;;;;;;;;;;;;;-0.46;100.00;102181.77;1781730;78;20166;-40
2020/12/18 08:18:28;;;;;;;;;;;;;;;-0.36;100.00;102180.95;1786112;78;20225;-42
2020/12/18 08:20:59;;;;;;;;;;;;;;;-0.34;100.00;102178.06;1797349;78;20680;-44
2020/12/18 08:23:30;;;;;;;;;;;;;;;-0.32;100.00;102181.58;1774150;78;20135;-43
2020/12/18 08:26:16;;;;;;;;;;;;;;;-0.32;100.00;102180.30;1781033;78;20176;-41
2020/12/18 08:28:54;;;;;;;;;;;;;;;-0.35;100.00;102182.73;1751672;78;20539;-41
2020/12/18 08:31:24;;;;;;;;;;;;;;;-0.32;100.00;102181.58;1781817;79;20439;-42
2020/12/18 08:33:53;;;;;;;;;;;;;;;-0.28;100.00;102178.38;1819202;78;20139;-42
2020/12/18 08:36:23;;;;;;;;;;;;;;;-0.24;100.00;102176.02;1812868;78;20186;-42
2020/12/18 08:39:05;;;;;;;;;;;;;;;-0.26;100.00;102175.05;1821066;78;20197;-40
2020/12/18 08:41:43;;;;;;;;;;;;;;;-0.26;100.00;102170.33;1815709;78;20459;-40
2020/12/18 08:44:12;;;;;;;;;;;;;;;-0.27;100.00;102167.27;1787485;78;20461;-42
2020/12/18 08:46:41;;;;;;;;;;;;;;;-0.29;100.00;102168.47;1816797;78;20471;-42
2020/12/18 08:49:15;;;;;;;;;;;;;;;-0.30;100.00;102169.27;1819238;78;20194;-41
2020/12/18 08:51:42;;;;;;;;;;;;;;;-0.31;100.00;102164.03;1814498;78;20172;-41
2020/12/18 08:54:21;;;;;;;;;;;;;;;-0.29;100.00;102163.72;1812474;78;20182;-40
2020/12/18 08:57:18;;;;;;;;;;;;;;;-0.27;100.00;102164.29;1816690;78;20199;-43
2020/12/18 08:59:54;;;;;;;;;;;;;;;-0.28;100.00;102167.66;1818413;78;20200;-41
2020/12/18 09:02:28;;;;;;;;;;;;;;;-0.28;100.00;102168.06;1811525;78;20191;-43
2020/12/18 09:05:11;;;;;;;;;;;;;;;-0.28;100.00;102166.78;1813599;78;20182;-41
2020/12/18 09:07:46;;;;;;;;;;;;;;;-0.28;100.00;102168.06;1798464;78;20465;-43
2020/12/18 09:10:14;;;;;;;;;;;;;;;-0.28;100.00;102164.20;1821583;78;20581;-43
2020/12/18 09:12:43;;;;;;;;;;;;;;;-0.25;100.00;102166.52;1813511;78;20720;-42
2020/12/18 09:15:20;;;;;;;;;;;;;;;-0.23;100.00;102166.20;1814959;78;20199;-43
2020/12/18 09:18:03;;;;;;;;;;;;;;;-0.20;100.00;102166.77;1812820;78;20296;-42
2020/12/18 09:20:36;;;;;;;;;;;;;;;-0.18;100.00;102163.44;1784436;78;21097;-43
2020/12/18 09:23:14;;;;;;;;;;;;;;;-0.17;100.00;102154.02;1818538;78;20293;-44
2020/12/18 09:25:46;;;;;;;;;;;;;;;-0.19;100.00;102155.22;1821200;78;20220;-42
2020/12/18 09:28:17;;;;;;;;;;;;;;;-0.18;100.00;102159.97;1812632;78;20280;-44
2020/12/18 09:30:52;;;;;;;;;;;;;;;-0.18;100.00;102164.73;1792065;78;20216;-43
2020/12/18 09:33:30;;;;;;;;;;;;;;;-0.20;100.00;102162.50;1815205;78;20134;-41
2020/12/18 09:36:05;;;;;;;;;;;;;;;-0.19;100.00;102165.53;1837674;77;20229;-40
2020/12/18 09:38:45;;;;;;;;;;;;;;;-0.16;100.00;102168.27;1812746;78;20169;-42
2020/12/18 09:41:18;;;;;;;;;;;;;;;-0.12;100.00;102166.72;1815250;78;20237;-41
2020/12/18 09:43:49;;;;;;;;;;;;;;;-0.06;100.00;102171.78;1774705;78;20291;-41
2020/12/18 09:46:22;;;;;;;;;;;;;;;-0.02;100.00;102165.98;1759899;78;20152;-43
2020/12/18 09:48:48;;;;;;;;;;;;;;;0.01;100.00;102162.66;1804612;78;20303;-44
2020/12/18 09:51:16;;;;;;;;;;;;;;;0.02;100.00;102162.25;1808319;78;20219;-41
2020/12/18 09:53:47;;;;;;;;;;;;;;;0.05;100.00;102168.86;1805527;78;20548;-41
2020/12/18 09:56:15;;;;;;;;;;;;;;;0.05;100.00;102161.12;1805855;78;20214;-40
2020/12/18 09:58:44;;;;;;;;;;;;;;;0.09;100.00;102156.59;1800178;78;20202;-43
2020/12/18 10:01:16;;;;;;;;;;;;;;;0.14;100.00;102158.58;1805330;78;20319;-42
2020/12/18 10:03:46;;;;;;;;;;;;;;;0.22;100.00;102155.98;1802646;78;20210;-43
2020/12/18 10:06:14;;;;;;;;;;;;;;;0.30;100.00;102152.08;1803982;78;20208;-41
2020/12/18 10:08:41;;;;;;;;;;;;;;;0.32;100.00;102151.75;1806960;78;20213;-40
2020/12/18 10:11:08;;;;;;;;;;;;;;;0.36;100.00;102149.78;1811413;78;20200;-43
2020/12/18 10:13:36;;;;;;;;;;;;;;;0.47;100.00;102151.98;1803835;78;20291;-42
2020/12/18 10:16:07;;;;;;;;;;;;;;;0.52;100.00;102150.52;1804467;78;20183;-41
2020/12/18 10:18:36;;;;;;;;;;;;;;;0.44;100.00;102146.69;1772307;78;20211;-42
2020/12/18 10:21:08;;;;;;;;;;;;;;;0.40;100.00;102143.95;1782699;78;20198;-43
2020/12/18 10:26:52;;;;;;;;;;;;;;;0.30;100.00;102131.44;1885882;74;20559;-43
2020/12/18 10:29:22;;;;;;;;;;;;;;;0.27;100.00;102137.73;1857087;75;20299;-41
2020/12/18 10:32:08;;;;;;;;;;;;;;;0.27;100.00;102129.99;1797545;75;20464;-42
2020/12/18 10:35:05;;;;;;;;;;;;;;;0.33;100.00;102130.28;1850956;75;20287;-41
2020/12/18 10:37:35;;;;;;;;;;;;;;;0.39;100.00;102123.27;1842457;75;20229;-41
2020/12/18 10:40:04;;;;;;;;;;;;;;;0.36;100.00;102121.81;1808443;75;20390;-43
2020/12/18 10:42:33;;;;;;;;;;;;;;;0.30;100.00;102120.23;1870136;75;20192;-42
2020/12/18 10:45:04;;;;;;;;;;;;;;;0.27;100.00;102122.25;1873161;75;20519;-43
2020/12/18 10:47:32;;;;;;;;;;;;;;;0.25;100.00;102121.32;1874798;75;66250;-64
2020/12/18 10:50:03;;;;;;;;;;;;;;;0.23;100.00;102120.35;1812953;78;20577;-63
2020/12/18 10:52:31;;;;;;;;;;;;;;;0.27;100.00;102118.79;1814858;78;20142;-61
2020/12/18 10:55:13;;;;;;;;;;;;;;;0.29;100.00;102119.75;1809643;78;20184;-66
2020/12/18 10:57:41;;;;;;;;;;;;;;;0.27;100.00;102118.39;1788204;78;20531;-64
2020/12/18 11:00:09;;;;;;;;;;;;;;;0.26;100.00;102120.48;1823246;78;20169;-63
2020/12/18 11:02:44;;;;;;;;;;;;;;;0.22;100.00;102123.73;1823104;78;20500;-63
2020/12/18 11:05:12;;;;;;;;;;;;;;;0.16;100.00;102126.43;1834356;76;20159;-62
2020/12/18 11:07:41;;;;;;;;;;;;;;;0.12;100.00;102127.10;1847350;77;20182;-64
2020/12/18 11:10:10;;;;;;;;;;;;;;;0.10;100.00;102120.58;1855818;76;20140;-64
2020/12/18 11:12:39;;;;;;;;;;;;;;;0.10;100.00;102124.84;1852544;76;20189;-68
2020/12/18 11:15:07;;;;;;;;;;;;;;;0.11;100.00;102114.61;1856213;77;20408;-65
2020/12/18 11:17:39;;;;;;;;;;;;;;;0.13;100.00;102121.14;1848114;76;20413;-64
2020/12/18 11:20:09;;;;;;;;;;;;;;;0.16;100.00;102118.29;1838677;77;20197;-62
2020/12/18 11:22:39;;;;;;;;;;;;;;;0.18;100.00;102112.81;1847416;76;20151;-63
2020/12/18 11:25:08;;;;;;;;;;;;;;;0.19;100.00;102113.70;1852044;75;20534;-62
2020/12/18 11:27:36;;;;;;;;;;;;;;;0.22;100.00;102111.25;1831500;77;20193;-65
2020/12/18 11:30:04;;;;;;;;;;;;;;;0.20;100.00;102118.02;1830048;78;20264;-63
2020/12/18 11:32:32;;;;;;;;;;;;;;;0.22;100.00;102116.00;1834972;77;20195;-64
2020/12/18 11:35:01;;;;;;;;;;;;;;;0.27;100.00;102116.20;1828272;78;20356;-65
2020/12/18 11:37:29;;;;;;;;;;;;;;;0.26;100.00;102115.32;1799983;78;20251;-65
2020/12/18 11:39:57;;;;;;;;;;;;;;;0.25;100.00;102112.70;1825118;78;20249;-65
2020/12/18 11:42:55;;;;;;;;;;;;;;;0.25;100.00;102110.12;1796226;78;20190;-64
2020/12/18 11:45:28;;;;;;;;;;;;;;;0.27;100.00;102117.09;1847969;76;20344;-65
2020/12/18 11:48:08;;;;;;;;;;;;;;;0.25;100.00;102114.87;1841089;78;20391;-63
2020/12/18 11:50:36;;;;;;;;;;;;;;;0.21;100.00;102112.05;1822040;78;20232;-64
2020/12/18 11:53:04;;;;;;;;;;;;;;;0.17;100.00;102114.91;1807205;78;20205;-65
2020/12/18 11:55:34;;;;;;;;;;;;;;;0.16;100.00;102114.42;1818927;78;20461;-65
2020/12/18 11:58:02;;;;;;;;;;;;;;;0.14;100.00;102117.72;1824847;78;20202;-63
2020/12/18 12:00:30;;;;;;;;;;;;;;;0.12;100.00;102113.81;1821529;78;20250;-64
2020/12/18 12:02:57;;;;;;;;;;;;;;;0.11;100.00;102121.46;1826451;78;20164;-61
2020/12/18 12:05:25;;;;;;;;;;;;;;;0.10;100.00;102113.24;1822423;78;20247;-63
2020/12/18 12:07:53;;;;;;;;;;;;;;;0.09;100.00;102123.07;1826368;78;20163;-65
2020/12/18 12:10:30;;;;;;;;;;;;;;;0.08;100.00;102120.90;1821893;77;20170;-65
2020/12/18 12:12:59;;;;;;;;;;;;;;;0.05;100.00;102118.59;1774695;78;20169;-63
2020/12/18 12:15:27;;;;;;;;;;;;;;;0.04;100.00;102116.41;1747715;81;20922;-65
2020/12/18 12:17:54;;;;;;;;;;;;;;;0.06;99.96;102121.25;1757948;79;20431;-66
2020/12/18 12:20:22;;;;;;;;;;;;;;;0.08;99.84;102120.01;1733368;81;20173;-67
2020/12/18 12:23:01;;;;;;;;;;;;;;;0.05;99.69;102116.90;1755882;79;20153;-62
2020/12/18 12:25:34;;;;;;;;;;;;;;;0.06;99.60;102112.23;1738018;80;20171;-65
2020/12/18 12:28:04;;;;;;;;;;;;;;;0.06;99.50;102110.94;1735628;79;20192;-66
2020/12/18 12:30:32;;;;;;;;;;;;;;;0.08;99.44;102109.30;1744129;80;20200;-65
2020/12/18 12:33:00;;;;;;;;;;;;;;;0.11;99.42;102116.30;1727595;81;20191;-66
2020/12/18 12:35:29;;;;;;;;;;;;;;;0.13;99.37;102116.84;1762829;79;20234;-63
2020/12/18 12:37:57;;;;;;;;;;;;;;;0.13;99.31;102124.58;1755849;81;20196;-66
2020/12/18 12:40:25;;;;;;;;;;;;;;;0.11;99.13;102127.91;1756914;81;20160;-63
2020/12/18 12:42:52;;;;;;;;;;;;;;;0.08;98.93;102129.92;1757438;81;20280;-64
2020/12/18 12:45:20;;;;;;;;;;;;;;;0.08;98.70;102133.78;1756743;81;20489;-64
2020/12/18 12:47:51;;;;;;;;;;;;;;;0.08;98.49;102133.78;1757819;81;20196;-63
2020/12/18 12:50:19;;;;;;;;;;;;;;;0.09;98.34;102132.98;1756852;79;20244;-64
2020/12/18 12:53:03;;;;;;;;;;;;;;;0.09;98.17;102132.98;1747063;81;20247;-64
2020/12/18 12:55:36;;;;;;;;;;;;;;;0.10;98.04;102133.47;1727013;81;20185;-64
2020/12/18 12:58:05;;;;;;;;;;;;;;;0.11;97.87;102135.24;1758365;81;20173;-62
2020/12/18 13:00:33;;;;;;;;;;;;;;;0.12;97.76;102135.72;1758699;81;20172;-66
2020/12/18 13:03:00;;;;;;;;;;;;;;;0.11;97.66;102136.53;1757163;81;20542;-66